createdAt,value
2017-10-17T00:00:55.049Z,10.80
2017-10-17T00:21:31.561Z,10.20
2017-10-17T00:42:08.663Z,9.60
2017-10-17T01:02:43.625Z,10.00
2017-10-17T01:23:20.127Z,9.63
2017-10-17T01:43:55.514Z,9.80
2017-10-17T02:04:31.748Z,8.87
2017-10-17T02:25:06.975Z,9.97
2017-10-17T02:45:40.902Z,9.70
2017-10-17T03:06:16.176Z,8.90
2017-10-17T03:26:51.718Z,9.60
2017-10-17T03:47:33.781Z,8.60
2017-10-17T04:51:02.667Z,7.50
2017-10-17T05:11:41.130Z,11.43
2017-10-17T05:32:17.967Z,8.40
2017-10-17T05:52:57.231Z,8.40
2017-10-17T06:13:33.421Z,10.83
2017-10-17T06:34:10.938Z,11.40
2017-10-17T06:54:44.888Z,11.60
2017-10-17T07:15:21.399Z,11.00
2017-10-17T07:35:54.608Z,10.80
2017-10-17T07:56:34.896Z,12.30
2017-10-17T08:17:10.889Z,11.50
2017-10-17T08:37:48.314Z,12.87
2017-10-17T08:58:25.707Z,13.70
2017-10-17T09:18:59.476Z,12.90
2017-10-17T09:39:36.890Z,15.63
2017-10-17T10:00:12.336Z,12.70
2017-10-17T10:20:52.963Z,11.00
2017-10-17T10:41:28.860Z,9.20
2017-10-17T11:02:01.659Z,8.80
2017-10-17T11:22:36.009Z,7.23
2017-10-17T11:43:25.420Z,5.90
2017-10-17T12:04:02.528Z,6.70
2017-10-17T12:24:36.879Z,6.33
2017-10-17T12:45:12.156Z,6.03
2017-10-17T13:05:53.675Z,5.10
2017-10-17T13:26:27.609Z,6.40
2017-10-17T13:47:05.140Z,6.13
2017-10-17T14:07:43.400Z,7.30
2017-10-17T14:28:23.559Z,5.00
2017-10-17T14:49:00.042Z,6.50
2017-10-17T15:09:40.225Z,6.80
2017-10-17T15:30:15.496Z,7.10
2017-10-17T15:50:55.402Z,6.10
2017-10-17T16:11:35.587Z,7.57
2017-10-17T16:32:12.087Z,16.23
2017-10-17T16:52:50.127Z,8.43
2017-10-17T17:13:26.317Z,10.73
2017-10-17T17:34:07.731Z,9.80
2017-10-17T17:54:46.294Z,10.87
2017-10-17T18:15:23.191Z,12.03
2017-10-17T18:35:57.838Z,12.50
2017-10-17T18:56:39.048Z,11.50
2017-10-17T19:17:12.078Z,12.07
2017-10-17T19:37:47.048Z,12.17
2017-10-17T19:58:22.742Z,11.80
2017-10-17T20:19:01.990Z,11.90
2017-10-17T20:39:34.190Z,16.30
2017-10-17T21:00:14.275Z,11.07
2017-10-17T21:20:49.237Z,11.73
2017-10-17T21:41:24.509Z,10.83
2017-10-17T22:01:57.935Z,10.70
2017-10-17T22:22:35.977Z,11.53
2017-10-17T22:43:10.326Z,11.00
2017-10-17T23:03:47.870Z,10.00
2017-10-17T23:24:21.791Z,9.53
2017-10-17T23:44:57.061Z,10.50
